Time;durP1;ratioP1;P1;durP2;ratioP2;P2;SDS_P1;SDS_P2;PMS_P1;PMS_P2;Temp;Humidity;BMP_temperature;BMP_pressure;BME280_temperature;BME280_humidity;BME280_pressure;Samples;Min_cycle;Max_cycle;Signal;HPM_P1;HPM_P2
2022/10/07 00:01:25;;;;;;;14.13;2.92;;;6.50;99.90;;;;;;5045075;28;20033;-63
2022/10/07 00:03:51;;;;;;;10.15;3.22;;;6.50;99.90;;;;;;5037370;28;20167;-63
2022/10/07 00:06:19;;;;;;;10.63;2.58;;;6.50;99.90;;;;;;5049070;28;20056;-63
2022/10/07 00:08:47;;;;;;;11.77;3.10;;;6.40;99.90;;;;;;5049673;28;20033;-63
2022/10/07 00:11:15;;;;;;;6.28;2.75;;;6.40;99.90;;;;;;5049918;28;20037;-62
2022/10/07 00:13:43;;;;;;;5.50;2.35;;;6.30;99.90;;;;;;5042805;28;20048;-63
2022/10/07 00:16:11;;;;;;;10.15;4.03;;;6.30;99.90;;;;;;5050531;28;20047;-63
2022/10/07 00:18:38;;;;;;;13.07;3.15;;;6.30;99.90;;;;;;5049232;28;20029;-63
2022/10/07 00:21:07;;;;;;;7.43;2.25;;;6.20;99.90;;;;;;5036010;28;20492;-63
2022/10/07 00:23:33;;;;;;;5.97;2.78;;;6.20;99.90;;;;;;5046922;28;20028;-63
2022/10/07 00:26:04;;;;;;;13.23;3.25;;;6.20;99.90;;;;;;5044872;28;20025;-62
2022/10/07 00:28:30;;;;;;;7.35;2.90;;;6.20;99.90;;;;;;5031264;28;20029;-61
2022/10/07 00:31:00;;;;;;;16.35;3.75;;;6.20;99.90;;;;;;5049227;28;20024;-63
2022/10/07 00:33:29;;;;;;;7.75;2.92;;;6.20;99.90;;;;;;5043264;28;20128;-64
2022/10/07 00:35:54;;;;;;;7.10;2.97;;;6.20;99.90;;;;;;5044393;28;20100;-65
2022/10/07 00:38:20;;;;;;;13.60;3.67;;;6.20;99.90;;;;;;5046482;28;20104;-64
2022/10/07 00:40:45;;;;;;;10.55;3.05;;;6.20;99.90;;;;;;5042413;28;20017;-65
2022/10/07 00:43:30;;;;;;;9.65;3.38;;;6.20;99.90;;;;;;5047711;28;20025;-64
2022/10/07 00:46:06;;;;;;;18.50;4.10;;;6.10;99.90;;;;;;5049272;28;20456;-66
2022/10/07 00:48:33;;;;;;;9.15;3.00;;;6.10;99.90;;;;;;5046291;28;20059;-64
2022/10/07 00:51:00;;;;;;;9.68;2.78;;;6.10;99.90;;;;;;5043268;28;20025;-64
2022/10/07 00:53:29;;;;;;;11.23;3.15;;;6.10;99.90;;;;;;5031140;28;20040;-65
2022/10/07 00:56:00;;;;;;;9.63;2.80;;;6.10;99.90;;;;;;5023400;28;20412;-64
2022/10/07 00:58:28;;;;;;;6.78;2.63;;;6.00;99.90;;;;;;5028755;28;20036;-64
2022/10/07 01:00:54;;;;;;;8.98;2.85;;;6.00;99.90;;;;;;5041983;28;20032;-65
2022/10/07 01:03:20;;;;;;;6.20;3.03;;;6.00;99.90;;;;;;5049072;28;20029;-63
2022/10/07 01:05:45;;;;;;;9.70;2.97;;;6.00;99.90;;;;;;5048044;28;20415;-64
2022/10/07 01:08:12;;;;;;;13.45;3.42;;;6.00;99.90;;;;;;5047604;28;20395;-64
2022/10/07 01:11:12;;;;;;;7.63;2.80;;;5.90;99.90;;;;;;5032361;28;20021;-64
2022/10/07 01:13:56;;;;;;;10.48;3.08;;;5.90;99.90;;;;;;5020734;28;20041;-63
2022/10/07 01:16:32;;;;;;;6.00;2.42;;;5.80;99.90;;;;;;5048120;28;20377;-64
2022/10/07 01:19:16;;;;;;;6.80;2.80;;;5.80;99.90;;;;;;5026037;28;20384;-65
2022/10/07 01:22:14;;;;;;;15.63;3.33;;;5.80;99.90;;;;;;5046082;28;20033;-63
2022/10/07 01:24:51;;;;;;;8.43;2.45;;;5.80;99.90;;;;;;5046114;28;20060;-65
2022/10/07 01:27:20;;;;;;;11.98;3.42;;;5.70;99.90;;;;;;5038400;28;20033;-64
2022/10/07 01:29:57;;;;;;;10.95;3.50;;;5.70;99.90;;;;;;5045719;28;20537;-66
2022/10/07 01:32:48;;;;;;;8.07;3.30;;;5.70;99.90;;;;;;5030320;28;20045;-64
2022/10/07 01:35:17;;;;;;;15.35;6.20;;;5.70;99.90;;;;;;5048175;28;20126;-63
2022/10/07 01:37:52;;;;;;;7.68;4.32;;;5.70;99.90;;;;;;5049741;28;20037;-64
2022/10/07 01:40:25;;;;;;;13.88;5.50;;;5.70;99.90;;;;;;5049125;28;20029;-64
2022/10/07 01:42:52;;;;;;;13.27;4.90;;;5.70;99.90;;;;;;5045717;28;20025;-65
2022/10/07 01:45:20;;;;;;;7.32;3.60;;;5.70;99.90;;;;;;5045656;28;20116;-65
2022/10/07 01:47:49;;;;;;;13.02;3.55;;;5.70;99.90;;;;;;5044033;28;20022;-64
2022/10/07 01:50:19;;;;;;;8.00;3.25;;;5.70;99.90;;;;;;5041994;28;20033;-64
2022/10/07 01:53:03;;;;;;;19.15;3.75;;;5.70;99.90;;;;;;5044242;28;20026;-65
2022/10/07 01:56:11;;;;;;;12.80;3.20;;;5.70;99.90;;;;;;5022541;28;20126;-64
2022/10/07 01:58:59;;;;;;;5.65;3.00;;;5.70;99.90;;;;;;5047036;28;20495;-64
2022/10/07 02:01:36;;;;;;;9.48;3.15;;;5.70;99.90;;;;;;5043594;28;20450;-64
2022/10/07 02:04:16;;;;;;;7.32;3.45;;;5.60;99.90;;;;;;5046542;28;20056;-64
2022/10/07 02:06:50;;;;;;;7.60;4.22;;;5.50;99.90;;;;;;5042457;28;20020;-64
2022/10/07 02:09:36;;;;;;;8.82;3.30;;;5.60;99.90;;;;;;5044256;28;20094;-66
2022/10/07 02:12:24;;;;;;;14.20;4.18;;;5.50;99.90;;;;;;5032094;28;20124;-64
2022/10/07 02:15:15;;;;;;;11.15;2.92;;;5.50;99.90;;;;;;5032955;28;20475;-64
2022/10/07 02:17:48;;;;;;;9.25;3.42;;;5.50;99.90;;;;;;5041573;28;20408;-64
2022/10/07 02:20:16;;;;;;;5.57;2.92;;;5.50;99.90;;;;;;5047990;28;20463;-65
2022/10/07 02:22:44;;;;;;;14.60;3.83;;;5.50;99.90;;;;;;5049800;28;20112;-63
2022/10/07 02:25:13;;;;;;;14.65;3.10;;;5.50;99.90;;;;;;5050304;28;20027;-66
2022/10/07 02:27:41;;;;;;;12.38;3.22;;;5.40;99.90;;;;;;5047603;28;20057;-64
2022/10/07 02:30:13;;;;;;;13.13;3.40;;;5.50;99.90;;;;;;5035087;28;20492;-66
2022/10/07 02:32:43;;;;;;;15.77;3.85;;;5.50;99.90;;;;;;5050543;28;20056;-64
2022/10/07 02:35:28;;;;;;;11.82;3.10;;;5.50;99.90;;;;;;5051655;28;20063;-63
2022/10/07 02:37:57;;;;;;;11.57;3.05;;;5.40;99.90;;;;;;5027036;28;20071;-65
2022/10/07 02:40:29;;;;;;;15.30;3.58;;;5.40;99.90;;;;;;5048865;28;20021;-64
2022/10/07 02:43:00;;;;;;;15.13;3.85;;;5.40;99.90;;;;;;5048609;28;20032;-64
2022/10/07 02:45:41;;;;;;;10.90;3.45;;;5.30;99.90;;;;;;5042866;28;20029;-65
2022/10/07 02:48:22;;;;;;;12.75;2.88;;;5.20;99.90;;;;;;5042185;28;20039;-64
2022/10/07 02:50:51;;;;;;;18.38;3.38;;;5.20;99.90;;;;;;5050372;28;20514;-63
2022/10/07 02:53:20;;;;;;;15.60;3.28;;;5.20;99.90;;;;;;5050571;28;20029;-64
2022/10/07 02:55:49;;;;;;;5.72;2.42;;;5.20;99.90;;;;;;5029788;28;20022;-63
2022/10/07 02:58:16;;;;;;;9.50;2.58;;;5.20;99.90;;;;;;5049185;28;20122;-64
2022/10/07 03:00:49;;;;;;;13.20;4.55;;;5.20;99.90;;;;;;5048288;28;20438;-64
2022/10/07 03:03:15;;;;;;;11.35;3.30;;;5.20;99.90;;;;;;5040139;28;20476;-64
2022/10/07 03:05:41;;;;;;;8.73;3.20;;;5.20;99.90;;;;;;5048574;28;20056;-64
2022/10/07 03:08:10;;;;;;;13.05;3.53;;;5.20;99.90;;;;;;5049919;28;20487;-64
2022/10/07 03:10:36;;;;;;;9.60;3.08;;;5.20;99.90;;;;;;5049670;28;20044;-64
2022/10/07 03:13:05;;;;;;;6.32;3.05;;;5.20;99.90;;;;;;5051060;28;20029;-65
2022/10/07 03:15:34;;;;;;;9.52;3.10;;;5.20;99.90;;;;;;5034723;28;20040;-65
2022/10/07 03:17:59;;;;;;;10.65;3.00;;;5.20;99.90;;;;;;5025240;28;20116;-64
2022/10/07 03:20:25;;;;;;;10.60;2.72;;;5.20;99.90;;;;;;5048342;28;20108;-64
2022/10/07 03:22:51;;;;;;;11.70;3.42;;;5.20;99.90;;;;;;5043375;28;20024;-64
2022/10/07 03:25:16;;;;;;;12.57;3.00;;;5.20;99.90;;;;;;5049569;28;20024;-64
2022/10/07 03:27:42;;;;;;;13.95;3.05;;;5.20;99.90;;;;;;5048961;28;20020;-64
2022/10/07 03:30:09;;;;;;;14.48;2.88;;;5.20;99.90;;;;;;5047069;28;20033;-64
2022/10/07 03:32:35;;;;;;;12.25;2.85;;;5.20;99.90;;;;;;5048814;28;20142;-64
2022/10/07 03:35:00;;;;;;;9.77;2.90;;;5.20;99.90;;;;;;5043172;28;20492;-64
2022/10/07 03:37:28;;;;;;;12.23;3.03;;;5.20;99.90;;;;;;5049520;28;20061;-64
2022/10/07 03:39:54;;;;;;;8.77;2.85;;;5.20;99.90;;;;;;5050779;28;20032;-64
2022/10/07 03:42:19;;;;;;;12.27;3.00;;;5.20;99.90;;;;;;5043174;28;20074;-64
2022/10/07 03:44:47;;;;;;;12.57;2.65;;;5.20;99.90;;;;;;5051483;28;20476;-64
2022/10/07 03:47:12;;;;;;;11.75;2.95;;;5.20;99.90;;;;;;5050366;28;20162;-64
2022/10/07 03:49:38;;;;;;;13.40;2.75;;;5.20;99.90;;;;;;5049171;28;20627;-64
2022/10/07 03:52:05;;;;;;;18.42;3.92;;;5.20;99.90;;;;;;5051349;28;20031;-66
2022/10/07 03:54:31;;;;;;;14.40;3.47;;;5.20;99.90;;;;;;5048809;28;20403;-63
2022/10/07 03:56:57;;;;;;;17.77;3.55;;;5.20;99.90;;;;;;5028612;28;20053;-63
2022/10/07 03:59:22;;;;;;;8.65;2.95;;;5.20;99.90;;;;;;5038173;28;20591;-65
2022/10/07 04:01:48;;;;;;;8.60;2.83;;;5.20;99.90;;;;;;5043940;28;20033;-64
2022/10/07 04:04:13;;;;;;;14.43;3.13;;;5.20;99.90;;;;;;5045730;28;20415;-63
2022/10/07 04:06:40;;;;;;;17.75;3.45;;;5.20;99.90;;;;;;5041074;28;20112;-64
2022/10/07 04:09:06;;;;;;;8.65;2.55;;;5.20;99.90;;;;;;5047826;28;20450;-66
2022/10/07 04:11:31;;;;;;;9.38;2.55;;;5.20;99.90;;;;;;5038780;28;20037;-64
2022/10/07 04:13:59;;;;;;;13.35;3.22;;;5.30;99.90;;;;;;5049182;28;20031;-63
2022/10/07 04:16:26;;;;;;;10.10;3.10;;;5.20;99.90;;;;;;5044625;28;20025;-63
2022/10/07 04:18:55;;;;;;;8.98;2.70;;;5.20;99.90;;;;;;5049772;28;20033;-63
2022/10/07 04:21:21;;;;;;;12.00;3.15;;;5.20;99.90;;;;;;5049119;28;20044;-64
2022/10/07 04:23:46;;;;;;;11.02;3.00;;;5.20;99.90;;;;;;5048822;28;20028;-65
2022/10/07 04:26:12;;;;;;;8.32;2.53;;;5.20;99.90;;;;;;5042486;28;20032;-67
2022/10/07 04:28:39;;;;;;;7.18;2.55;;;5.20;99.90;;;;;;5027925;28;20465;-63
2022/10/07 04:31:07;;;;;;;16.77;3.28;;;5.10;99.90;;;;;;5045483;28;20035;-64
2022/10/07 04:33:33;;;;;;;6.65;2.55;;;5.10;99.90;;;;;;5049619;28;20094;-63
2022/10/07 04:36:08;;;;;;;7.72;2.22;;;5.10;99.90;;;;;;5036500;28;20120;-64
2022/10/07 04:38:33;;;;;;;;;;;5.10;99.90;;;;;;5036495;28;20431;-64
2022/10/07 04:41:03;;;;;;;12.50;3.13;;;5.10;99.90;;;;;;5046622;28;20101;-63
2022/10/07 04:43:32;;;;;;;7.82;2.72;;;5.10;99.90;;;;;;5040453;28;20393;-64
2022/10/07 04:46:12;;;;;;;9.95;2.30;;;5.10;99.90;;;;;;5050398;28;20454;-63
2022/10/07 04:48:38;;;;;;;19.23;2.28;;;5.10;99.90;;;;;;5045735;28;20104;-63
2022/10/07 04:51:06;;;;;;;9.30;2.20;;;5.10;99.90;;;;;;5040241;28;20101;-67
2022/10/07 04:53:33;;;;;;;10.02;2.85;;;5.10;99.90;;;;;;5048167;28;20037;-65
2022/10/07 04:55:59;;;;;;;14.57;3.42;;;5.10;99.90;;;;;;5033561;28;20051;-64
2022/10/07 04:58:26;;;;;;;14.10;2.70;;;5.10;99.90;;;;;;5031486;28;20025;-64
2022/10/07 05:00:53;;;;;;;7.07;3.67;;;5.10;99.90;;;;;;5030155;28;20037;-64
2022/10/07 05:03:21;;;;;;;11.20;2.55;;;5.10;99.90;;;;;;5042396;28;20021;-64
2022/10/07 05:05:49;;;;;;;12.82;3.17;;;5.10;99.90;;;;;;5044799;28;20529;-65
2022/10/07 05:08:17;;;;;;;11.57;3.20;;;5.10;99.90;;;;;;5047670;28;20029;-67
2022/10/07 05:10:43;;;;;;;6.22;2.30;;;5.00;99.90;;;;;;5036079;28;20055;-63
2022/10/07 05:13:13;;;;;;;8.48;2.53;;;5.00;99.90;;;;;;5015698;28;20522;-64
2022/10/07 05:15:53;;;;;;;7.45;2.83;;;4.90;99.90;;;;;;5043464;28;20032;-63
2022/10/07 05:18:20;;;;;;;6.88;2.65;;;4.90;99.90;;;;;;5048285;28;20029;-64
2022/10/07 05:20:47;;;;;;;7.97;2.25;;;4.90;99.90;;;;;;5029928;28;20029;-64
2022/10/07 05:23:17;;;;;;;9.57;2.88;;;4.90;99.90;;;;;;5047388;28;20017;-63
2022/10/07 05:25:44;;;;;;;3.95;2.30;;;4.90;99.90;;;;;;5046628;28;20539;-63
2022/10/07 05:28:11;;;;;;;6.47;2.60;;;4.80;99.90;;;;;;5048257;28;20039;-64
2022/10/07 05:30:38;;;;;;;8.65;2.20;;;4.80;99.90;;;;;;5040907;28;20031;-63
2022/10/07 05:33:04;;;;;;;8.80;3.33;;;4.80;99.90;;;;;;5023944;28;20116;-63
2022/10/07 05:35:32;;;;;;;14.77;3.63;;;4.70;99.90;;;;;;5034729;28;20059;-65
2022/10/07 05:37:59;;;;;;;14.95;3.42;;;4.80;99.90;;;;;;5049889;28;20446;-64
2022/10/07 05:40:24;;;;;;;5.22;2.08;;;4.70;99.90;;;;;;5042285;28;20075;-64
2022/10/07 05:42:50;;;;;;;11.02;2.88;;;4.70;99.90;;;;;;5046169;28;20045;-64
2022/10/07 05:45:15;;;;;;;14.90;3.28;;;4.70;99.90;;;;;;5051804;28;20492;-63
2022/10/07 05:47:41;;;;;;;10.32;2.63;;;4.70;99.90;;;;;;4997034;28;20041;-65
2022/10/07 05:50:07;;;;;;;6.65;2.42;;;4.70;99.90;;;;;;5045630;28;20121;-64
2022/10/07 05:52:34;;;;;;;10.27;2.67;;;4.70;99.90;;;;;;5028505;28;20124;-65
2022/10/07 05:55:00;;;;;;;14.68;2.45;;;4.70;99.90;;;;;;5051421;28;20032;-64
2022/10/07 05:57:26;;;;;;;6.68;2.78;;;4.70;99.90;;;;;;5043456;28;20029;-64
2022/10/07 05:59:51;;;;;;;9.13;2.85;;;4.80;99.90;;;;;;5049539;28;20056;-64
2022/10/07 06:02:18;;;;;;;13.60;5.05;;;4.80;99.90;;;;;;5034117;28;20447;-64
2022/10/07 06:04:47;;;;;;;18.30;7.00;;;4.80;99.90;;;;;;5051514;28;20530;-64
2022/10/07 06:07:14;;;;;;;25.10;7.53;;;4.80;99.90;;;;;;5048934;28;20053;-64
2022/10/07 06:15:09;;;;;;;4.78;2.42;;;4.90;99.90;;;;;;5049422;28;20125;-65
2022/10/07 06:17:42;;;;;;;7.28;3.00;;;4.90;99.90;;;;;;5048057;28;20025;-66
2022/10/07 06:20:09;;;;;;;11.07;2.88;;;5.00;99.90;;;;;;5042178;28;20041;-65
2022/10/07 06:22:34;;;;;;;9.30;2.92;;;5.10;99.90;;;;;;5043558;28;20606;-64
2022/10/07 06:25:01;;;;;;;8.85;2.88;;;5.20;99.90;;;;;;5026895;28;20028;-66
2022/10/07 06:27:27;;;;;;;8.70;2.53;;;5.30;99.90;;;;;;5049352;28;20163;-64
2022/10/07 06:29:53;;;;;;;5.90;2.58;;;5.40;99.90;;;;;;5045133;28;20045;-66
2022/10/07 06:32:19;;;;;;;11.57;2.80;;;5.60;99.90;;;;;;5045021;28;20519;-65
2022/10/07 06:34:44;;;;;;;17.23;3.72;;;5.70;99.90;;;;;;5045993;28;20519;-65
2022/10/07 06:37:10;;;;;;;6.75;1.90;;;5.80;99.90;;;;;;5033805;28;20021;-64
2022/10/07 06:39:35;;;;;;;21.30;3.83;;;5.90;99.90;;;;;;5040234;28;20419;-65
2022/10/07 06:42:01;;;;;;;8.48;2.50;;;6.10;99.90;;;;;;5051836;28;20077;-64
2022/10/07 06:44:27;;;;;;;5.47;2.38;;;6.20;99.90;;;;;;5043536;28;20499;-66
2022/10/07 06:46:53;;;;;;;11.30;2.78;;;6.30;99.90;;;;;;5038365;28;20037;-64
2022/10/07 06:49:18;;;;;;;6.03;2.55;;;6.50;99.90;;;;;;5036479;28;20407;-64
2022/10/07 06:51:45;;;;;;;9.90;3.03;;;6.90;99.90;;;;;;5051005;28;20025;-66
2022/10/07 06:54:11;;;;;;;5.20;2.20;;;7.30;99.90;;;;;;5030427;28;20380;-65
2022/10/07 06:56:37;;;;;;;18.65;3.47;;;7.50;99.90;;;;;;5042104;28;20033;-64
2022/10/07 06:59:03;;;;;;;9.45;2.55;;;7.60;99.90;;;;;;5048844;28;20082;-64
2022/10/07 07:01:29;;;;;;;8.85;3.45;;;7.70;99.90;;;;;;5037222;28;20053;-65
2022/10/07 07:03:55;;;;;;;10.65;3.58;;;7.80;99.90;;;;;;5046362;28;20021;-66
2022/10/07 07:06:20;;;;;;;13.70;2.97;;;7.70;99.90;;;;;;5049084;28;20037;-64
2022/10/07 07:08:48;;;;;;;11.23;2.85;;;7.70;99.90;;;;;;5035903;22;20058;-66
2022/10/07 07:14:00;;;;;;;16.95;3.75;;;7.80;99.90;;;;;;5011622;28;20064;-66
2022/10/07 07:16:26;;;;;;;5.32;2.33;;;7.90;99.90;;;;;;5011414;28;20018;-65
2022/10/07 07:18:56;;;;;;;12.63;2.70;;;7.90;99.90;;;;;;5008839;28;20136;-64
2022/10/07 07:21:24;;;;;;;9.70;2.33;;;7.90;99.90;;;;;;5008928;28;20044;-66
2022/10/07 07:23:50;;;;;;;9.73;2.65;;;8.00;99.90;;;;;;5010346;28;20105;-66
2022/10/07 07:26:19;;;;;;;6.82;2.35;;;8.20;99.90;;;;;;5011036;28;20022;-65
2022/10/07 07:28:50;;;;;;;8.40;2.28;;;8.20;99.90;;;;;;5009987;28;20072;-65
2022/10/07 07:31:16;;;;;;;7.72;2.30;;;8.40;99.90;;;;;;5009206;28;20597;-64
2022/10/07 07:33:42;;;;;;;7.80;2.33;;;8.40;99.90;;;;;;5009822;28;20389;-67
2022/10/07 07:36:14;;;;;;;9.48;3.38;;;8.50;99.90;;;;;;5010245;28;20030;-66
2022/10/07 07:38:41;;;;;;;12.63;2.40;;;8.60;99.90;;;;;;5006246;28;20079;-65
2022/10/07 07:41:07;;;;;;;4.60;2.05;;;8.80;99.90;;;;;;5008817;28;20026;-64
2022/10/07 07:43:32;;;;;;;9.05;2.53;;;8.90;99.90;;;;;;5019380;28;20025;-64
2022/10/07 07:45:58;;;;;;;8.05;2.22;;;8.90;99.90;;;;;;5018040;28;20052;-65
2022/10/07 07:48:24;;;;;;;4.22;1.92;;;9.00;99.90;;;;;;4992003;28;20053;-65
2022/10/07 07:50:49;;;;;;;6.25;1.88;;;9.10;99.90;;;;;;5012787;28;20022;-66
2022/10/07 07:53:15;;;;;;;8.73;2.35;;;9.20;99.90;;;;;;5013631;28;20030;-63
2022/10/07 07:55:51;;;;;;;10.30;2.42;;;9.30;99.90;;;;;;5027419;28;20029;-65
2022/10/07 07:58:17;;;;;;;5.35;1.88;;;9.40;99.90;;;;;;5013461;28;20026;-65
2022/10/07 08:00:42;;;;;;;7.38;2.60;;;9.30;99.90;;;;;;5008195;28;20030;-64
2022/10/07 08:03:08;;;;;;;11.07;2.28;;;9.50;99.90;;;;;;4993284;28;20070;-65
2022/10/07 08:05:34;;;;;;;13.50;2.80;;;9.60;99.90;;;;;;5008417;28;20037;-65
2022/10/07 08:08:00;;;;;;;8.82;1.98;;;9.70;99.90;;;;;;5012994;28;20026;-67
2022/10/07 08:10:25;;;;;;;7.63;2.20;;;9.80;99.90;;;;;;5010679;28;20033;-65
2022/10/07 08:12:51;;;;;;;11.07;2.05;;;9.90;99.90;;;;;;5008788;28;20113;-65
2022/10/07 08:15:17;;;;;;;7.47;1.88;;;10.10;99.90;;;;;;5007965;28;20465;-67
2022/10/07 08:17:42;;;;;;;9.05;2.67;;;10.20;99.90;;;;;;5012932;28;20492;-64
2022/10/07 08:20:09;;;;;;;11.45;4.35;;;10.30;99.90;;;;;;5017716;28;20053;-65
2022/10/07 08:22:35;;;;;;;5.45;2.65;;;10.30;99.90;;;;;;5017916;28;20022;-67
2022/10/07 08:25:00;;;;;;;7.05;2.13;;;10.40;99.90;;;;;;5016251;28;20039;-66
2022/10/07 08:27:27;;;;;;;11.65;2.33;;;10.50;99.90;;;;;;5010075;28;20034;-65
2022/10/07 08:29:53;;;;;;;8.18;1.90;;;10.50;99.90;;;;;;5008135;28;20068;-65
2022/10/07 08:32:18;;;;;;;9.48;2.47;;;10.70;99.90;;;;;;5019702;28;20022;-65
2022/10/07 08:34:44;;;;;;;6.93;1.90;;;10.80;99.90;;;;;;5021515;28;20038;-67
2022/10/07 08:37:09;;;;;;;6.65;3.38;;;10.90;99.90;;;;;;5012747;28;20097;-65
2022/10/07 08:39:35;;;;;;;9.77;2.60;;;11.00;99.90;;;;;;5013878;28;20050;-65
2022/10/07 08:42:14;;;;;;;6.43;1.85;;;11.10;99.90;;;;;;5016496;28;20017;-65
2022/10/07 08:44:43;;;;;;;10.27;2.60;;;11.20;99.90;;;;;;5004042;28;20025;-65
2022/10/07 08:47:24;;;;;;;8.20;1.88;;;11.30;99.90;;;;;;4994360;28;20050;-66
2022/10/07 08:50:08;;;;;;;14.23;3.10;;;11.40;99.90;;;;;;4990410;28;20357;-66
2022/10/07 08:52:38;;;;;;;10.20;2.28;;;11.50;99.90;;;;;;4991734;28;20560;-67
2022/10/07 08:55:14;;;;;;;8.45;2.90;;;11.60;99.90;;;;;;4993418;28;20014;-66
2022/10/07 08:57:48;;;;;;;5.65;2.30;;;11.80;99.90;;;;;;4988897;28;20034;-66
2022/10/07 09:00:18;;;;;;;16.13;2.67;;;12.00;99.90;;;;;;4985495;28;20053;-64
2022/10/07 09:03:13;;;;;;;5.78;2.28;;;12.50;99.90;;;;;;5000104;28;20131;-66
2022/10/07 09:05:43;;;;;;;6.60;2.03;;;13.50;99.90;;;;;;4970959;28;20401;-64
2022/10/07 09:08:20;;;;;;;6.40;1.95;;;14.10;99.90;;;;;;4987152;28;20112;-66
2022/10/07 09:10:49;;;;;;;6.70;2.17;;;14.80;99.90;;;;;;4986907;28;20030;-66
2022/10/07 09:13:28;;;;;;;7.20;1.85;;;15.40;99.90;;;;;;4987721;28;20089;-68
2022/10/07 09:16:06;;;;;;;4.90;2.28;;;15.80;99.90;;;;;;4989620;28;20042;-67
2022/10/07 09:18:46;;;;;;;6.72;2.28;;;15.70;99.90;;;;;;4988609;28;20497;-67
2022/10/07 09:21:22;;;;;;;7.95;2.20;;;16.00;99.90;;;;;;4987389;28;20039;-68
2022/10/07 09:23:54;;;;;;;6.15;1.70;;;16.50;99.90;;;;;;4982277;28;20469;-66
2022/10/07 09:26:19;;;;;;;5.10;1.90;;;17.10;99.80;;;;;;4988630;28;20085;-66
2022/10/07 09:28:45;;;;;;;8.98;1.83;;;17.50;97.10;;;;;;4989671;28;20062;-67
2022/10/07 09:31:13;;;;;;;9.05;1.77;;;17.70;95.50;;;;;;4987788;28;20127;-67
2022/10/07 09:33:43;;;;;;;5.75;1.58;;;17.90;96.70;;;;;;4982506;28;20034;-65
2022/10/07 09:36:11;;;;;;;8.55;1.73;;;17.70;97.20;;;;;;4989918;28;20477;-65
2022/10/07 09:38:39;;;;;;;8.30;2.03;;;17.50;97.80;;;;;;4990123;28;20034;-64
2022/10/07 09:41:30;;;;;;;6.53;1.80;;;18.00;97.40;;;;;;4988476;28;20041;-66
2022/10/07 09:44:02;;;;;;;4.80;2.35;;;18.30;96.20;;;;;;4999367;28;20034;-67
2022/10/07 09:46:46;;;;;;;6.63;2.05;;;18.20;96.20;;;;;;4989853;28;20077;-66
2022/10/07 09:49:26;;;;;;;9.93;2.08;;;18.00;94.50;;;;;;4966359;28;20049;-68
2022/10/07 09:51:59;;;;;;;7.07;1.80;;;17.70;95.10;;;;;;4989657;28;20080;-66
2022/10/07 09:54:26;;;;;;;10.75;2.33;;;17.70;95.20;;;;;;4974678;28;20034;-64
2022/10/07 09:56:57;;;;;;;6.25;1.60;;;17.90;95.80;;;;;;4994514;28;20506;-65
2022/10/07 09:59:24;;;;;;;6.10;1.80;;;17.70;95.60;;;;;;4992541;28;20434;-64
2022/10/07 10:01:56;;;;;;;10.77;2.70;;;17.70;95.60;;;;;;5021466;28;20026;-66
2022/10/07 10:04:46;;;;;;;10.68;2.08;;;17.20;95.60;;;;;;4989477;28;20026;-67
2022/10/07 10:07:29;;;;;;;8.05;1.80;;;16.90;96.20;;;;;;4989789;28;20096;-68
2022/10/07 10:10:14;;;;;;;9.32;1.75;;;16.60;97.20;;;;;;5008908;28;20368;-66
2022/10/07 10:12:46;;;;;;;8.90;1.63;;;16.50;97.10;;;;;;4988188;28;20061;-67
2022/10/07 10:15:39;;;;;;;7.63;1.98;;;16.30;98.10;;;;;;4997343;28;20366;-68
2022/10/07 10:18:32;;;;;;;6.72;1.70;;;16.40;99.20;;;;;;4992445;28;20046;-66
2022/10/07 10:21:13;;;;;;;5.03;1.52;;;16.50;98.80;;;;;;4989527;28;20038;-67
2022/10/07 10:23:44;;;;;;;7.68;2.15;;;16.40;97.80;;;;;;4990361;28;20464;-64
2022/10/07 10:26:40;;;;;;;5.53;1.90;;;16.40;98.10;;;;;;5025056;28;20032;-66
2022/10/07 10:29:12;;;;;;;7.03;2.22;;;16.50;98.60;;;;;;4992108;28;20084;-66
2022/10/07 10:31:56;;;;;;;8.40;2.38;;;16.60;98.10;;;;;;4990885;28;20572;-65
2022/10/07 10:34:23;;;;;;;;;;;16.70;98.30;;;;;;5007313;28;20042;-65
2022/10/07 10:36:53;;;;;;;10.90;2.28;;;16.70;98.30;;;;;;4992872;28;19948;-66
2022/10/07 10:39:27;;;;;;;8.20;2.17;;;16.80;98.00;;;;;;4992364;28;20023;-66
2022/10/07 10:41:59;;;;;;;8.30;2.40;;;16.60;98.10;;;;;;4992832;28;20069;-66
2022/10/07 10:44:31;;;;;;;7.25;2.08;;;16.60;98.40;;;;;;4995178;28;20018;-66
2022/10/07 10:47:12;;;;;;;8.63;1.92;;;16.60;98.10;;;;;;5003707;28;20029;-67
2022/10/07 10:50:04;;;;;;;7.40;1.83;;;16.90;97.50;;;;;;4970265;28;20066;-67
2022/10/07 10:52:52;;;;;;;8.23;1.95;;;16.90;97.20;;;;;;4992957;28;20489;-66
2022/10/07 10:55:23;;;;;;;4.28;2.13;;;16.90;96.70;;;;;;4992409;28;20034;-66
2022/10/07 10:58:03;;;;;;;9.80;3.20;;;16.90;97.00;;;;;;5024088;28;20015;-66
2022/10/07 11:01:02;;;;;;;11.25;2.42;;;16.80;97.60;;;;;;4994370;28;20077;-66
2022/10/07 11:03:52;;;;;;;7.45;1.63;;;16.90;98.10;;;;;;4996189;28;20135;-66
2022/10/07 11:06:18;;;;;;;7.82;1.88;;;16.90;97.70;;;;;;4977072;28;20038;-68
2022/10/07 11:08:46;;;;;;;9.52;2.50;;;17.00;97.60;;;;;;4993622;28;20041;-67
2022/10/07 11:11:17;;;;;;;9.95;2.60;;;17.00;97.10;;;;;;4989915;28;20022;-67
2022/10/07 11:14:00;;;;;;;11.55;2.28;;;17.00;96.50;;;;;;4989159;28;20085;-65
2022/10/07 11:16:35;;;;;;;8.27;2.10;;;17.00;96.00;;;;;;4993506;28;20037;-67
2022/10/07 11:19:10;;;;;;;13.68;2.05;;;17.10;95.60;;;;;;4999762;28;20026;-67
2022/10/07 11:21:40;;;;;;;8.02;1.88;;;16.90;96.00;;;;;;5002845;28;20034;-63
2022/10/07 11:24:17;;;;;;;10.68;2.97;;;16.90;96.70;;;;;;4989211;28;20064;-66
2022/10/07 11:27:16;;;;;;;10.07;1.92;;;17.00;96.60;;;;;;4995324;28;20083;-68
2022/10/07 11:29:49;;;;;;;6.78;2.85;;;17.00;96.10;;;;;;4988658;28;20401;-64
2022/10/07 11:32:27;;;;;;;10.95;1.73;;;16.70;95.50;;;;;;4992481;28;20060;-66
2022/10/07 11:35:17;;;;;;;6.78;2.40;;;16.70;95.70;;;;;;5000445;28;20027;-65
2022/10/07 11:37:53;;;;;;;14.27;2.35;;;16.70;97.50;;;;;;4994097;28;20478;-65
2022/10/07 11:40:21;;;;;;;7.18;1.42;;;16.70;95.40;;;;;;4993544;28;20026;-65
2022/10/07 11:42:50;;;;;;;12.25;2.30;;;16.60;96.30;;;;;;4989566;28;20022;-66
2022/10/07 11:45:36;;;;;;;7.90;2.30;;;16.60;97.30;;;;;;4996157;28;20487;-67
2022/10/07 11:48:06;;;;;;;6.88;1.65;;;16.60;96.10;;;;;;4982277;28;20072;-64
2022/10/07 11:50:38;;;;;;;12.57;2.25;;;16.70;95.60;;;;;;5011165;28;20485;-65
2022/10/07 11:53:12;;;;;;;4.57;1.45;;;16.70;95.50;;;;;;5009199;28;20501;-65
2022/10/07 11:55:55;;;;;;;9.63;2.05;;;16.70;95.70;;;;;;4999445;28;20063;-66
2022/10/07 11:58:33;;;;;;;8.90;2.63;;;16.80;95.00;;;;;;5018142;28;20025;-65
2022/10/07 12:01:24;;;;;;;9.90;2.05;;;16.80;96.00;;;;;;5006600;28;20284;-64
2022/10/07 12:03:50;;;;;;;7.22;1.77;;;16.80;95.50;;;;;;5012654;28;20024;-64
2022/10/07 12:06:16;;;;;;;11.27;3.15;;;16.80;95.30;;;;;;5012711;28;20121;-62
2022/10/07 12:08:43;;;;;;;8.27;2.00;;;16.90;96.10;;;;;;4979041;28;20533;-65
2022/10/07 12:11:11;;;;;;;11.15;2.22;;;16.90;95.00;;;;;;4989965;28;20030;-63
2022/10/07 12:13:47;;;;;;;10.40;2.00;;;16.90;94.90;;;;;;4990198;28;20033;-64
2022/10/07 12:16:31;;;;;;;9.35;1.75;;;16.80;95.90;;;;;;4985773;28;20054;-64
2022/10/07 12:19:05;;;;;;;5.97;1.98;;;16.80;95.70;;;;;;4984701;28;20023;-64
2022/10/07 12:22:01;;;;;;;8.88;2.28;;;16.80;95.10;;;;;;4988448;28;20041;-65
2022/10/07 12:24:29;;;;;;;8.70;2.00;;;16.80;95.70;;;;;;4986543;28;20034;-65
2022/10/07 12:26:57;;;;;;;5.20;1.63;;;16.90;95.40;;;;;;4985828;28;20065;-65
2022/10/07 12:29:33;;;;;;;6.65;1.70;;;16.80;95.10;;;;;;4988412;28;20022;-65
2022/10/07 12:31:59;;;;;;;7.05;1.67;;;16.80;94.70;;;;;;4989500;28;20022;-67
2022/10/07 12:34:34;;;;;;;6.25;1.90;;;16.70;95.60;;;;;;4985941;28;20030;-66
2022/10/07 12:37:37;;;;;;;5.35;1.80;;;16.70;96.00;;;;;;4987423;28;20452;-66
2022/10/07 12:40:16;;;;;;;5.38;1.73;;;16.70;96.20;;;;;;4987250;28;20612;-65
2022/10/07 12:43:15;;;;;;;11.73;2.30;;;16.70;96.40;;;;;;4986944;28;20038;-66
2022/10/07 12:45:42;;;;;;;4.95;1.55;;;16.80;96.40;;;;;;4984532;28;20060;-65
2022/10/07 12:48:16;;;;;;;8.10;1.98;;;16.70;96.20;;;;;;4967588;28;20117;-65
2022/10/07 12:50:44;;;;;;;12.93;3.50;;;16.70;95.30;;;;;;4989240;28;20033;-65
2022/10/07 12:53:10;;;;;;;11.25;1.98;;;16.70;96.10;;;;;;4988449;28;20029;-65
2022/10/07 12:55:40;;;;;;;8.85;2.30;;;16.70;95.40;;;;;;4985653;28;20026;-64
2022/10/07 13:01:29;;;;;;;6.35;1.60;;;16.60;96.00;;;;;;4985409;28;20452;-65
2022/10/07 13:04:29;;;;;;;6.35;1.60;;;16.60;96.50;;;;;;4989658;28;20081;-65
2022/10/07 13:07:20;;;;;;;9.52;1.77;;;16.50;96.20;;;;;;4986196;28;20030;-65
2022/10/07 13:10:10;;;;;;;4.82;1.45;;;16.60;95.70;;;;;;4965862;28;20486;-66
2022/10/07 13:12:44;;;;;;;8.73;1.90;;;16.60;95.30;;;;;;4989047;28;20033;-62
2022/10/07 13:15:40;;;;;;;9.23;2.58;;;16.60;95.90;;;;;;4990425;28;20022;-65
2022/10/07 13:18:47;;;;;;;7.30;2.03;;;16.50;95.50;;;;;;4988267;28;20037;-66
2022/10/07 13:21:22;;;;;;;8.13;1.95;;;16.50;95.60;;;;;;4988174;28;20382;-66
2022/10/07 13:23:53;;;;;;;4.32;1.60;;;16.50;95.90;;;;;;4983517;28;20101;-64
2022/10/07 13:26:21;;;;;;;9.45;1.65;;;16.50;96.30;;;;;;4987919;28;20026;-64